Historyczne dane pomiarowe

Dodano dane terminowe – wersja testowa.

Dane z okresu 1951-2019

Wersja bazy: 1.34 [2019-03-16, lista zmian], aktualizacja planowana na 2019-04-15

Dane meteo z obszaru Polski uzyskane na podstawie danych udostępnionych przez Instytut Meteorologii i Gospodarki Wodnej – Państwowy Instytut Badawczy.

 

Wybierz Datę:    

       

TemperaturaWilgotnośćZachmurzenieWiatrCiśnienieWidzialnośćZjawiska
 Data    tng td wb rh cc ccl cl cm ch dir g1 g2 mslp ppp      
1994-08-12 00:00:00 15.5--- 13.8 14.590wxwx2wx--1007.6 992.9 0.0---wx
1994-08-12 01:00:00 15.2--- 13.9 14.492wxwxwx2wx--1008.3 993.5----wx
1994-08-12 02:00:00 14.3--- 13.1 13.693wxwxwx1wx--1008.2 993.4----wx
1994-08-12 03:00:00 13.5--- 12.8 13.196wxwxwx2wx--1008.2 993.3----wx
1994-08-12 04:00:00 14.0--- 13.7 13.898wxwxwx1wx--1008.3 993.5----wx
1994-08-12 05:00:00 15.1--- 14.3 14.695wxwxwx1wx--1008.3 993.5----wx
1994-08-12 06:00:00 16.4--- 14.8 15.490wxwxwxwx1wx--1008.2 993.5 0.0---wx
1994-08-12 07:00:00 18.4--- 14.9 16.280wxwxwxwx0wx--1008.0 993.4----wx
1994-08-12 08:00:00 19.3--- 15.0 16.676wxwxwxwx1wx--1007.9 993.3----wx
1994-08-12 09:00:00 20.1--- 14.1 16.468wxwxwxwx3wx--1007.9 993.4----wx
1994-08-12 10:00:00 20.6--- 14.5 16.868wxwxwxwx3wx--1008.0 993.5----wx
1994-08-12 11:00:00 21.1--- 14.0 16.764wxwxwxwx2wx--1007.9 993.4----wx
1994-08-12 12:00:00 20.8--- 14.0 16.665wxwxwxwx3wx--1007.9 993.4 0.0---wxw1
1994-08-12 13:00:00 17.4--- 15.8 16.490wxwxwxwx2wx--1008.0 993.4----wxw1
1994-08-12 14:00:00 19.8--- 16.7 17.882wxwxwxwx3wx--1007.9 993.4----wx
1994-08-12 15:00:00 20.0--- 16.6 17.881wxwxwxwx3wx--1008.0 993.5----wxw1
1994-08-12 16:00:00 20.7--- 15.1 17.270wxwxwxwxwx4wx--1008.3 993.8----wx
1994-08-12 17:00:00 19.9--- 14.8 16.772wxwxwxwxwx4wx--1008.4 993.9----wx
1994-08-12 18:00:00 18.2--- 15.0 16.282wxwxwxwx5wx--1008.9 994.4 2.7---wxw1
1994-08-12 19:00:00 17.7--- 14.8 15.983wxwxwx4wx--1009.6 995.0----wx
1994-08-12 20:00:00 16.8--- 14.0 15.184wxwxwxwxwx3wx--1009.7 995.0----wx
1994-08-12 21:00:00 16.5--- 14.4 15.287wxwxwxwx4wx--1009.7 995.0----wx
1994-08-12 22:00:00 16.2--- 14.4 15.189wxwxwx3wx--1009.7 995.0----wx
1994-08-12 23:00:00 15.8--- 14.0 14.789wxwxwx3wx--1009.9 995.2----wx

 

Źródłem pochodzenia danych jest Instytut Meteorologii i Gospodarki Wodnej – Państwowy Instytut Badawczy. Dane Instytutu Meteorologii i Gospodarki Wodnej – Państwowego Instytutu Badawczego zostały przetworzone.

Dane źródłowe można odnaleźć na stronie https://dane.imgw.pl